sensor_id;sensor_type;location;lat;lon;timestamp;temperature;humidity
54578;DHT22;40474;49.330;8.130;2022-10-23T11:04:13;21.40;99.90
54578;DHT22;40474;49.330;8.130;2022-10-23T11:06:45;23.00;96.30
54578;DHT22;40474;49.330;8.130;2022-10-23T11:09:24;24.50;93.90
54578;DHT22;40474;49.330;8.130;2022-10-23T11:11:51;25.40;92.10
54578;DHT22;40474;49.330;8.130;2022-10-23T11:14:25;24.30;92.50
54578;DHT22;40474;49.330;8.130;2022-10-23T11:16:58;24.00;92.70
54578;DHT22;40474;49.330;8.130;2022-10-23T11:19:53;23.90;93.00
54578;DHT22;40474;49.330;8.130;2022-10-23T11:22:49;23.10;94.70
54578;DHT22;40474;49.330;8.130;2022-10-23T11:25:55;23.00;93.80
54578;DHT22;40474;49.330;8.130;2022-10-23T11:29:31;23.10;99.90
54578;DHT22;40474;49.330;8.130;2022-10-23T15:37:35;23.80;51.50
54578;DHT22;64608;49.344;8.138;2022-10-23T15:40:02;21.60;55.60
54578;DHT22;64608;49.344;8.138;2022-10-23T15:42:29;20.30;60.40
54578;DHT22;64608;49.344;8.138;2022-10-23T15:44:56;19.50;63.80
54578;DHT22;64608;49.344;8.138;2022-10-23T15:47:23;19.10;67.00
54578;DHT22;64608;49.344;8.138;2022-10-23T15:49:50;18.80;67.30
54578;DHT22;64608;49.344;8.138;2022-10-23T15:52:16;18.60;67.80
54578;DHT22;64608;49.344;8.138;2022-10-23T15:54:43;18.40;71.10
54578;DHT22;64608;49.344;8.138;2022-10-23T15:57:10;18.20;72.30
54578;DHT22;64608;49.344;8.138;2022-10-23T15:59:37;18.10;73.00
54578;DHT22;64608;49.344;8.138;2022-10-23T16:02:04;18.00;73.60
54578;DHT22;64608;49.344;8.138;2022-10-23T16:04:31;17.90;73.50
54578;DHT22;64608;49.344;8.138;2022-10-23T16:06:59;17.80;74.60
54578;DHT22;64608;49.344;8.138;2022-10-23T16:09:26;17.70;74.50
54578;DHT22;64608;49.344;8.138;2022-10-23T16:11:54;17.70;74.80
54578;DHT22;64608;49.344;8.138;2022-10-23T16:14:20;17.70;74.70
54578;DHT22;64608;49.344;8.138;2022-10-23T16:16:47;17.60;73.00
54578;DHT22;64608;49.344;8.138;2022-10-23T16:19:14;17.60;73.80
54578;DHT22;64608;49.344;8.138;2022-10-23T16:21:41;17.60;74.10
54578;DHT22;64608;49.344;8.138;2022-10-23T16:24:08;17.50;74.40
54578;DHT22;64608;49.344;8.138;2022-10-23T16:26:38;17.50;73.90
54578;DHT22;64608;49.344;8.138;2022-10-23T16:29:07;17.50;74.70
54578;DHT22;64608;49.344;8.138;2022-10-23T16:31:34;17.50;75.00
54578;DHT22;64608;49.344;8.138;2022-10-23T16:34:04;17.50;74.90
54578;DHT22;64608;49.344;8.138;2022-10-23T16:36:33;17.50;74.20
54578;DHT22;64608;49.344;8.138;2022-10-23T16:39:02;17.60;73.90
54578;DHT22;64608;49.344;8.138;2022-10-23T16:41:30;17.70;74.10
54578;DHT22;64608;49.344;8.138;2022-10-23T16:43:57;17.60;73.10
54578;DHT22;64608;49.344;8.138;2022-10-23T16:46:24;17.70;74.00
54578;DHT22;64608;49.344;8.138;2022-10-23T16:48:51;17.70;73.70
54578;DHT22;64608;49.344;8.138;2022-10-23T16:51:21;17.90;72.40
54578;DHT22;64608;49.344;8.138;2022-10-23T16:53:48;17.90;71.80
54578;DHT22;64608;49.344;8.138;2022-10-23T16:56:17;18.00;71.40
54578;DHT22;64608;49.344;8.138;2022-10-23T16:58:44;18.10;70.70
54578;DHT22;64608;49.344;8.138;2022-10-23T17:01:14;18.20;70.50
54578;DHT22;64608;49.344;8.138;2022-10-23T17:03:44;18.20;69.80
54578;DHT22;64608;49.344;8.138;2022-10-23T17:06:16;18.20;69.70
54578;DHT22;64608;49.344;8.138;2022-10-23T17:08:43;18.30;70.00
54578;DHT22;64608;49.344;8.138;2022-10-23T17:11:15;18.30;71.20
54578;DHT22;64608;49.344;8.138;2022-10-23T17:13:44;18.30;70.10
54578;DHT22;64608;49.344;8.138;2022-10-23T17:16:14;18.40;70.00
54578;DHT22;64608;49.344;8.138;2022-10-23T17:18:42;18.30;70.60
54578;DHT22;64608;49.344;8.138;2022-10-23T17:21:11;18.30;70.20
54578;DHT22;64608;49.344;8.138;2022-10-23T17:23:37;18.30;70.50
54578;DHT22;64608;49.344;8.138;2022-10-23T17:26:10;18.30;74.20
54578;DHT22;64608;49.344;8.138;2022-10-23T17:28:38;18.20;74.00
54578;DHT22;64608;49.344;8.138;2022-10-23T17:31:17;17.90;81.30
54578;DHT22;64608;49.344;8.138;2022-10-23T17:33:45;17.60;79.30
54578;DHT22;64608;49.344;8.138;2022-10-23T17:36:13;17.40;80.60
54578;DHT22;64608;49.344;8.138;2022-10-23T17:38:42;17.20;82.90
54578;DHT22;64608;49.344;8.138;2022-10-23T17:41:11;16.90;84.70
54578;DHT22;64608;49.344;8.138;2022-10-23T17:43:38;16.50;90.90
54578;DHT22;64608;49.344;8.138;2022-10-23T17:46:07;16.30;91.20
54578;DHT22;64608;49.344;8.138;2022-10-23T17:48:34;16.20;92.70
54578;DHT22;64608;49.344;8.138;2022-10-23T17:51:07;16.00;93.00
54578;DHT22;64608;49.344;8.138;2022-10-23T17:53:36;16.00;93.10
54578;DHT22;64608;49.344;8.138;2022-10-23T17:56:06;16.00;93.40
54578;DHT22;64608;49.344;8.138;2022-10-23T17:58:33;16.00;93.70
54578;DHT22;64608;49.344;8.138;2022-10-23T18:01:08;15.90;93.00
54578;DHT22;64608;49.344;8.138;2022-10-23T18:03:36;15.90;93.20
54578;DHT22;64608;49.344;8.138;2022-10-23T18:06:07;15.90;92.80
54578;DHT22;64608;49.344;8.138;2022-10-23T18:08:38;15.80;92.70
54578;DHT22;64608;49.344;8.138;2022-10-23T18:11:06;15.80;92.90
54578;DHT22;64608;49.344;8.138;2022-10-23T18:13:35;15.90;93.00
54578;DHT22;64608;49.344;8.138;2022-10-23T18:16:03;15.90;93.20
54578;DHT22;64608;49.344;8.138;2022-10-23T18:18:30;15.90;93.10
54578;DHT22;64608;49.344;8.138;2022-10-23T18:20:58;15.80;92.60
54578;DHT22;64608;49.344;8.138;2022-10-23T18:23:26;15.80;92.80
54578;DHT22;64608;49.344;8.138;2022-10-23T18:25:53;15.90;92.10
54578;DHT22;64608;49.344;8.138;2022-10-23T18:28:20;15.90;91.10
54578;DHT22;64608;49.344;8.138;2022-10-23T18:30:48;15.90;91.90
54578;DHT22;64608;49.344;8.138;2022-10-23T18:33:22;15.90;91.80
54578;DHT22;64608;49.344;8.138;2022-10-23T18:35:52;15.90;92.30
54578;DHT22;64608;49.344;8.138;2022-10-23T18:38:22;15.80;92.40
54578;DHT22;64608;49.344;8.138;2022-10-23T18:40:53;15.90;92.80
54578;DHT22;64608;49.344;8.138;2022-10-23T18:43:21;15.80;92.80
54578;DHT22;64608;49.344;8.138;2022-10-23T18:46:08;15.80;91.50
54578;DHT22;64608;49.344;8.138;2022-10-23T18:48:35;15.90;91.30
54578;DHT22;64608;49.344;8.138;2022-10-23T18:51:02;16.00;90.80
54578;DHT22;64608;49.344;8.138;2022-10-23T18:53:29;16.10;89.50
54578;DHT22;64608;49.344;8.138;2022-10-23T18:55:55;16.20;87.40
54578;DHT22;64608;49.344;8.138;2022-10-23T18:58:22;16.20;83.40
54578;DHT22;64608;49.344;8.138;2022-10-23T19:00:50;16.40;83.70
54578;DHT22;64608;49.344;8.138;2022-10-23T19:03:17;16.50;79.50
54578;DHT22;64608;49.344;8.138;2022-10-23T19:05:45;16.50;80.90
54578;DHT22;64608;49.344;8.138;2022-10-23T19:08:12;16.60;79.30
54578;DHT22;64608;49.344;8.138;2022-10-23T19:10:39;16.60;80.90
54578;DHT22;64608;49.344;8.138;2022-10-23T19:13:07;16.60;81.80
54578;DHT22;64608;49.344;8.138;2022-10-23T19:15:35;16.60;76.80
54578;DHT22;64608;49.344;8.138;2022-10-23T19:18:06;16.90;75.00
54578;DHT22;64608;49.344;8.138;2022-10-23T19:20:34;17.00;76.70
54578;DHT22;64608;49.344;8.138;2022-10-23T19:23:01;17.10;75.20
54578;DHT22;64608;49.344;8.138;2022-10-23T19:25:32;17.20;74.80
54578;DHT22;64608;49.344;8.138;2022-10-23T19:28:00;17.30;73.30
54578;DHT22;64608;49.344;8.138;2022-10-23T19:30:30;17.50;74.40
54578;DHT22;64608;49.344;8.138;2022-10-23T19:32:57;17.60;72.10
54578;DHT22;64608;49.344;8.138;2022-10-23T19:35:25;17.70;71.30
54578;DHT22;64608;49.344;8.138;2022-10-23T19:37:51;17.90;68.20
54578;DHT22;64608;49.344;8.138;2022-10-23T19:40:18;18.00;71.00
54578;DHT22;64608;49.344;8.138;2022-10-23T19:42:45;17.60;82.60
54578;DHT22;64608;49.344;8.138;2022-10-23T19:45:13;17.20;85.70
54578;DHT22;64608;49.344;8.138;2022-10-23T19:47:43;16.90;86.30
54578;DHT22;64608;49.344;8.138;2022-10-23T19:50:13;16.60;87.50
54578;DHT22;64608;49.344;8.138;2022-10-23T19:52:40;16.50;88.90
54578;DHT22;64608;49.344;8.138;2022-10-23T19:55:07;16.40;89.00
54578;DHT22;64608;49.344;8.138;2022-10-23T19:57:34;16.20;89.50
54578;DHT22;64608;49.344;8.138;2022-10-23T20:00:05;16.20;90.00
54578;DHT22;64608;49.344;8.138;2022-10-23T20:02:33;16.20;88.70
54578;DHT22;64608;49.344;8.138;2022-10-23T20:05:07;16.30;86.20
54578;DHT22;64608;49.344;8.138;2022-10-23T20:07:34;16.50;87.00
54578;DHT22;64608;49.344;8.138;2022-10-23T20:10:06;16.40;87.40
54578;DHT22;64608;49.344;8.138;2022-10-23T20:12:33;16.40;84.40
54578;DHT22;64608;49.344;8.138;2022-10-23T20:15:00;16.80;83.00
54578;DHT22;64608;49.344;8.138;2022-10-23T20:17:27;16.60;86.10
54578;DHT22;64608;49.344;8.138;2022-10-23T20:19:54;16.70;81.80
54578;DHT22;64608;49.344;8.138;2022-10-23T20:22:22;17.40;71.80
54578;DHT22;64608;49.344;8.138;2022-10-23T20:24:49;17.80;74.60
54578;DHT22;64608;49.344;8.138;2022-10-23T20:27:16;17.40;76.20
54578;DHT22;64608;49.344;8.138;2022-10-23T20:29:44;17.60;74.00
54578;DHT22;64608;49.344;8.138;2022-10-23T20:32:12;17.80;69.70
54578;DHT22;64608;49.344;8.138;2022-10-23T20:34:41;18.00;69.30
54578;DHT22;64608;49.344;8.138;2022-10-23T20:37:11;18.30;67.40
54578;DHT22;64608;49.344;8.138;2022-10-23T20:39:40;18.50;65.20
54578;DHT22;64608;49.344;8.138;2022-10-23T20:42:08;18.80;65.60
54578;DHT22;64608;49.344;8.138;2022-10-23T20:44:35;18.80;64.90
54578;DHT22;64608;49.344;8.138;2022-10-23T20:47:02;18.80;63.70
54578;DHT22;64608;49.344;8.138;2022-10-23T20:49:29;19.10;63.50
54578;DHT22;64608;49.344;8.138;2022-10-23T20:51:56;19.10;64.10
